Time;durP1;ratioP1;P1;durP2;ratioP2;P2;SDS_P1;SDS_P2;PMS_P1;PMS_P2;Temp;Humidity;BMP_temperature;BMP_pressure;BME280_temperature;BME280_humidity;BME280_pressure;Samples;Min_cycle;Max_cycle;Signal;HPM_P1;HPM_P2
2023/05/22 00:00:14;;;;;;;;;;;15.40;94.00;;;;;;5037971;28;19908;-96
2023/05/22 00:03:19;;;;;;;;;;;15.40;94.00;;;;;;5039198;28;20048;-96
2023/05/22 00:06:14;;;;;;;;;;;15.40;94.00;;;;;;5051264;28;19909;-96
2023/05/22 00:09:10;;;;;;;;;;;;;;;;;;;;;
2023/05/22 00:12:11;;;;;;;;;;;15.40;94.00;;;;;;5046025;28;19909;-96
2023/05/22 00:15:18;;;;;;;;;;;15.30;94.00;;;;;;5052732;28;20038;-96
2023/05/22 00:18:14;;;;;;;;;;;15.30;94.10;;;;;;5054039;28;20440;-96
2023/05/22 00:21:08;;;;;;;;;;;15.30;94.10;;;;;;5049697;28;19909;-96
2023/05/22 00:23:54;;;;;;;;;;;15.40;94.20;;;;;;5037469;28;19913;-96
2023/05/22 00:26:41;;;;;;;;;;;15.30;94.20;;;;;;5042737;28;19923;-96
2023/05/22 00:29:39;;;;;;;;;;;15.30;94.20;;;;;;5049823;28;19915;-96
2023/05/22 00:32:25;;;;;;;;;;;15.30;94.20;;;;;;5052187;28;19916;-96
2023/05/22 00:35:13;;;;;;;;;;;15.30;94.30;;;;;;5033250;28;19916;-96
2023/05/22 00:38:11;;;;;;;;;;;;;;;;;;;;;
2023/05/22 00:41:16;;;;;;;;;;;15.30;94.30;;;;;;5055056;28;19916;-96
2023/05/22 00:44:14;;;;;;;;;;;;;;;;;;;;;
2023/05/22 00:47:10;;;;;;;;;;;15.30;94.40;;;;;;5047025;28;19916;-96
2023/05/22 00:53:32;;;;;;;;;;;15.30;94.40;;;;;;5046416;28;19913;-96
2023/05/22 00:56:29;;;;;;;;;;;15.30;94.40;;;;;;5037780;28;19909;-96
2023/05/22 00:59:20;;;;;;;;;;;15.30;94.40;;;;;;5037278;28;19913;-96
2023/05/22 01:02:18;;;;;;;;;;;15.30;94.40;;;;;;5047830;28;19909;-96
2023/05/22 01:05:14;;;;;;;;;;;15.30;94.40;;;;;;5051932;28;19916;-96
2023/05/22 01:08:01;;;;;;;;;;;15.30;94.50;;;;;;5052580;28;20346;-96
2023/05/22 01:10:57;;;;;;;;;;;;;;;;;;;;;
2023/05/22 01:13:54;;;;;;;;;;;15.30;94.60;;;;;;5055151;28;20287;-96
2023/05/22 01:17:12;;;;;;;;;;;;;;;;;;;;;
2023/05/22 01:20:09;;;;;;;;;;;15.20;94.50;;;;;;4988974;28;19949;-96
2023/05/22 01:23:01;;;;;;;;;;;15.30;94.60;;;;;;5035125;28;19909;-96
2023/05/22 01:25:58;;;;;;;;;;;15.20;94.60;;;;;;5037288;28;19989;-96
2023/05/22 01:29:08;;;;;;;;;;;15.20;94.60;;;;;;5053229;28;19986;-96
2023/05/22 01:32:01;;;;;;;;;;;15.20;94.60;;;;;;5047781;28;20240;-96
2023/05/22 01:34:49;;;;;;;;;;;15.20;94.70;;;;;;5032806;28;19935;-96
2023/05/22 01:37:54;;;;;;;;;;;15.10;94.60;;;;;;5042763;28;19921;-96
2023/05/22 01:41:06;;;;;;;;;;;15.20;94.70;;;;;;5056625;28;19916;-96
2023/05/22 01:44:08;;;;;;;;;;;15.20;94.70;;;;;;5051052;28;20376;-96
2023/05/22 01:47:06;;;;;;;;;;;15.20;94.70;;;;;;5055983;28;19909;-96
2023/05/22 01:50:03;;;;;;;;;;;15.20;94.70;;;;;;5058893;28;19933;-96
2023/05/22 01:53:10;;;;;;;;;;;15.20;94.70;;;;;;5034205;28;19913;-96
2023/05/22 01:55:55;;;;;;;;;;;15.20;94.80;;;;;;5057151;28;19915;-96
2023/05/22 01:58:44;;;;;;;;;;;15.20;95.10;;;;;;5059913;28;19913;-96
2023/05/22 02:01:38;;;;;;;;;;;15.20;94.80;;;;;;5043072;28;19916;-96
2023/05/22 02:04:34;;;;;;;;;;;15.20;94.80;;;;;;5057788;28;19909;-96
2023/05/22 02:07:49;;;;;;;;;;;15.20;94.80;;;;;;5056277;28;19909;-96
2023/05/22 02:10:49;;;;;;;;;;;15.20;94.90;;;;;;5061449;28;19916;-96
2023/05/22 02:17:06;;;;;;;;;;;15.20;94.90;;;;;;4963288;28;19941;-96
2023/05/22 02:20:12;;;;;;;;;;;15.20;94.90;;;;;;4947510;29;20007;-96
2023/05/22 02:23:14;;;;;;;;;;;15.10;94.90;;;;;;4962743;28;19910;-96
2023/05/22 02:35:59;;;;;;;;;;;15.20;95.00;;;;;;4853848;29;19912;-96
2023/05/22 02:38:54;;;;;;;;;;;15.20;95.00;;;;;;4878876;29;19936;-96
2023/05/22 02:41:50;;;;;;;;;;;15.10;94.90;;;;;;4856393;29;19919;-96
2023/05/22 02:48:00;;;;;;;;;;;15.10;95.00;;;;;;4832814;29;19913;-96
2023/05/22 02:51:12;;;;;;;;;;;15.10;95.00;;;;;;4833235;29;19924;-96
2023/05/22 02:57:17;;;;;;;;;;;15.10;95.00;;;;;;4894806;29;19912;-96
2023/05/22 03:00:32;;;;;;;;;;;15.10;95.00;;;;;;4896252;29;20022;-96
2023/05/22 03:03:31;;;;;;;;;;;15.10;95.00;;;;;;4868014;29;19916;-96
2023/05/22 03:06:45;;;;;;;;;;;;;;;;;;;;;
2023/05/22 03:09:40;;;;;;;;;;;15.10;95.00;;;;;;4980223;28;19910;-96
2023/05/22 03:15:59;;;;;;;;;;;15.10;95.00;;;;;;4969671;28;19915;-96
2023/05/22 03:19:00;;;;;;;;;;;15.10;95.10;;;;;;4957322;29;19993;-96
2023/05/22 03:21:56;;;;;;;;;;;15.10;95.10;;;;;;4963996;28;19919;-96
2023/05/22 03:31:14;;;;;;;;;;;15.10;95.10;;;;;;4933922;29;19970;-96
2023/05/22 03:34:08;;;;;;;;;;;15.10;95.50;;;;;;4926752;29;19918;-96
2023/05/22 03:37:25;;;;;;;;;;;15.10;95.20;;;;;;4949453;29;19942;-96
2023/05/22 03:40:27;;;;;;;;;;;15.10;95.20;;;;;;4881487;29;19958;-96
2023/05/22 03:43:41;;;;;;;;;;;15.10;95.10;;;;;;4888007;29;19919;-96
2023/05/22 03:56:12;;;;;;;;;;;15.10;95.20;;;;;;4887885;29;20325;-96
2023/05/22 03:59:28;;;;;;;;;;;;;;;;;;;;;
2023/05/22 04:02:25;;;;;;;;;;;15.00;95.20;;;;;;4839808;29;19999;-96
2023/05/22 04:05:25;;;;;;;;;;;15.10;95.20;;;;;;4829247;29;20314;-96
2023/05/22 04:08:25;;;;;;;;;;;15.00;95.30;;;;;;4878585;29;19916;-96
2023/05/22 04:18:18;;;;;;;;;;;15.10;95.30;;;;;;4934560;29;20066;-96
2023/05/22 04:27:40;;;;;;;;;;;15.00;95.40;;;;;;4887282;29;19923;-96
2023/05/22 04:30:26;;;;;;;;;;;15.00;95.40;;;;;;4868215;29;19912;-96
2023/05/22 04:33:33;;;;;;;;;;;15.10;95.40;;;;;;4885406;29;19919;-96
2023/05/22 04:36:29;;;;;;;;;;;15.00;95.30;;;;;;4887994;29;19919;-96
2023/05/22 04:39:54;;;;;;;;;;;15.10;95.40;;;;;;4904158;29;19947;-96
2023/05/22 04:42:36;;;;;;;;;;;15.10;95.40;;;;;;4893179;29;19916;-96
2023/05/22 04:45:50;;;;;;;;;;;15.10;95.40;;;;;;4888970;29;19911;-96
2023/05/22 04:48:53;;;;;;;;;;;;;;;;;;;;;
2023/05/22 04:54:50;;;;;;;;;;;15.10;95.40;;;;;;4859828;29;19912;-96
2023/05/22 04:57:58;;;;;;;;;;;;;;;;;;;;;
2023/05/22 05:00:58;;;;;;;;;;;15.00;95.30;;;;;;4885502;29;20385;-96
2023/05/22 05:03:45;;;;;;;;;;;15.10;95.30;;;;;;4898219;29;20269;-96
2023/05/22 05:06:34;;;;;;;;;;;15.10;95.20;;;;;;4898733;29;20138;-96
2023/05/22 05:09:39;;;;;;;;;;;15.10;95.20;;;;;;4898811;29;19918;-96
2023/05/22 05:12:26;;;;;;;;;;;15.10;95.10;;;;;;4898572;29;19911;-96
2023/05/22 05:15:14;;;;;;;;;;;15.20;95.10;;;;;;4902355;29;20442;-96
2023/05/22 05:18:00;;;;;;;;;;;15.20;95.00;;;;;;4897626;29;19981;-96
2023/05/22 05:20:51;;;;;;;;;;;15.20;95.00;;;;;;4894808;29;20409;-96
2023/05/22 05:23:38;;;;;;;;;;;15.20;94.90;;;;;;4901878;29;20423;-96
2023/05/22 05:26:26;;;;;;;;;;;15.20;94.90;;;;;;4901745;29;19999;-96
2023/05/22 05:29:13;;;;;;;;;;;15.20;94.90;;;;;;4901288;29;19911;-96
2023/05/22 05:31:59;;;;;;;;;;;15.20;94.90;;;;;;4949841;28;19954;-96
2023/05/22 05:34:45;;;;;;;;;;;15.20;94.90;;;;;;4955826;28;19958;-96
2023/05/22 05:37:33;;;;;;;;;;;15.30;94.90;;;;;;4964424;28;19981;-96
2023/05/22 05:40:18;;;;;;;;;;;15.30;94.90;;;;;;4946556;29;19917;-96
2023/05/22 05:43:04;;;;;;;;;;;15.40;94.90;;;;;;4946151;29;19911;-96
2023/05/22 05:45:51;;;;;;;;;;;15.40;94.90;;;;;;4953490;28;19911;-96
2023/05/22 05:48:36;;;;;;;;;;;15.40;94.80;;;;;;4961565;28;20422;-96
2023/05/22 05:51:36;;;;;;;;;;;15.40;94.80;;;;;;4960655;28;20000;-96
2023/05/22 05:54:24;;;;;;;;;;;15.40;94.80;;;;;;4949500;28;19910;-96
2023/05/22 05:57:11;;;;;;;;;;;15.50;94.80;;;;;;4962460;28;19914;-96
2023/05/22 06:00:02;;;;;;;;;;;15.50;94.80;;;;;;4959081;28;19910;-96
2023/05/22 06:02:51;;;;;;;;;;;15.60;94.80;;;;;;4963933;28;20312;-96
2023/05/22 06:05:38;;;;;;;;;;;15.60;94.70;;;;;;4975448;28;20352;-96
2023/05/22 06:08:24;;;;;;;;;;;15.70;94.70;;;;;;4989313;28;19918;-96
2023/05/22 06:11:30;;;;;;;;;;;15.70;94.60;;;;;;4963616;28;19957;-96
2023/05/22 06:14:17;;;;;;;;;;;15.80;94.60;;;;;;4964597;28;19917;-96
2023/05/22 06:17:03;;;;;;;;;;;15.80;94.50;;;;;;4988496;28;19915;-96
2023/05/22 06:19:50;;;;;;;;;;;15.80;94.40;;;;;;4974381;28;20018;-96
2023/05/22 06:22:36;;;;;;;;;;;15.90;94.40;;;;;;4967094;28;19910;-96
2023/05/22 06:25:22;;;;;;;;;;;16.00;94.30;;;;;;4957015;28;20381;-96
2023/05/22 06:28:08;;;;;;;;;;;16.00;94.20;;;;;;4986886;28;19910;-96
2023/05/22 06:31:04;;;;;;;;;;;16.00;94.20;;;;;;4970229;28;19911;-96
2023/05/22 06:33:52;;;;;;;;;;;16.00;94.10;;;;;;4975822;28;19950;-96
2023/05/22 06:36:41;;;;;;;;;;;16.10;94.00;;;;;;4976176;28;19918;-96
2023/05/22 06:39:28;;;;;;;;;;;16.10;93.90;;;;;;4972965;28;19947;-96
2023/05/22 06:42:19;;;;;;;;;;;16.20;93.80;;;;;;4977212;28;19927;-96
2023/05/22 06:45:06;;;;;;;;;;;16.20;93.80;;;;;;4975825;28;20377;-96
2023/05/22 06:47:59;;;;;;;;;;;16.30;93.70;;;;;;4969209;28;19910;-96
2023/05/22 06:50:46;;;;;;;;;;;16.30;93.60;;;;;;4984338;28;19949;-96
2023/05/22 06:53:36;;;;;;;;;;;16.40;93.50;;;;;;4976866;28;19910;-96
2023/05/22 06:56:30;;;;;;;;;;;16.40;93.50;;;;;;4972319;28;19910;-96
2023/05/22 06:59:16;;;;;;;;;;;16.50;93.40;;;;;;4986451;28;19914;-96
2023/05/22 07:02:21;;;;;;;;;;;16.50;93.30;;;;;;4988575;28;19910;-96
2023/05/22 07:05:27;;;;;;;;;;;16.60;93.30;;;;;;4982829;28;19914;-96
2023/05/22 07:08:35;;;;;;;;;;;16.60;93.20;;;;;;4972549;28;20553;-96
2023/05/22 07:11:46;;;;;;;;;;;16.70;93.10;;;;;;4983169;28;19910;-96
2023/05/22 07:14:50;;;;;;;;;;;16.70;93.10;;;;;;4993367;28;20254;-96
2023/05/22 07:18:08;;;;;;;;;;;16.80;93.00;;;;;;4980167;28;19909;-96
2023/05/22 07:21:25;;;;;;;;;;;16.80;93.00;;;;;;4938195;29;19919;-96
2023/05/22 07:24:42;;;;;;;;;;;16.90;93.00;;;;;;4863572;29;19917;-96
2023/05/22 07:28:07;;;;;;;;;;;;;;;;;;;;;
2023/05/22 08:38:57;;;;;;;;;;;17.90;92.10;;;;;;5040398;28;19976;-96
2023/05/22 08:41:55;;;;;;;;;;;17.90;92.10;;;;;;5041484;28;19952;-96
2023/05/22 08:44:54;;;;;;;;;;;17.90;92.10;;;;;;5045568;28;19948;-96
2023/05/22 08:48:01;;;;;;;;;;;18.00;92.10;;;;;;5033232;28;19916;-96
2023/05/22 08:50:48;;;;;;;;;;;18.00;92.60;;;;;;5035019;28;19913;-96
2023/05/22 08:53:34;;;;;;;;;;;18.10;92.20;;;;;;5015980;28;19910;-96
2023/05/22 08:56:20;;;;;;;;;;;18.00;92.20;;;;;;5015654;28;19916;-96
2023/05/22 08:59:05;;;;;;;;;;;18.00;92.20;;;;;;5011139;28;19924;-96
2023/05/22 09:01:52;;;;;;;;;;;18.00;92.20;;;;;;5035390;28;20445;-96
2023/05/22 09:04:37;;;;;;;;;;;18.10;92.40;;;;;;5020377;28;19964;-96
2023/05/22 09:07:26;;;;;;;;;;;18.10;92.20;;;;;;5010415;28;20004;-96
2023/05/22 09:10:13;;;;;;;;;;;18.10;92.20;;;;;;5024249;28;19949;-96
2023/05/22 09:12:59;;;;;;;;;;;18.10;92.10;;;;;;5035383;28;19913;-96
2023/05/22 09:15:46;;;;;;;;;;;18.10;92.00;;;;;;5022126;28;19913;-96
2023/05/22 09:18:32;;;;;;;;;;;18.20;92.20;;;;;;5029798;28;19913;-96
2023/05/22 09:20:58;;;;;;;;;;;18.20;92.30;;;;;;5009689;28;19964;-96
2023/05/22 09:23:44;;;;;;;;;;;18.20;92.30;;;;;;5008477;28;19913;-96
2023/05/22 09:26:32;;;;;;;;;;;18.20;92.20;;;;;;5039835;28;19916;-96
2023/05/22 09:29:35;;;;;;;;;;;18.20;92.30;;;;;;5028984;28;20013;-96
2023/05/22 09:32:21;;;;;;;;;;;18.20;92.60;;;;;;5021847;28;19948;-96
2023/05/22 09:34:54;;;;;;;;;;;18.20;92.20;;;;;;5013352;28;19949;-96
2023/05/22 09:37:20;;;;;;;;;;;18.20;92.00;;;;;;5013409;28;19917;-96
2023/05/22 09:40:26;;;;;;;;;;;18.30;92.00;;;;;;5022700;28;19917;-96
2023/05/22 09:43:31;;;;;;;;;;;18.20;92.30;;;;;;5044693;28;19944;-96
2023/05/22 09:46:03;;;;;;;;;;;18.30;92.40;;;;;;5034036;28;20003;-96
2023/05/22 09:48:48;;;;;;;;;;;18.30;92.50;;;;;;5027596;28;19958;-96
2023/05/22 09:51:34;;;;;;;;;;;18.30;92.50;;;;;;5007643;28;20004;-96
2023/05/22 09:54:21;;;;;;;;;;;18.30;92.50;;;;;;5021964;28;19910;-96
2023/05/22 09:57:08;;;;;;;;;;;18.30;92.50;;;;;;5027399;28;20004;-96
2023/05/22 09:59:56;;;;;;;;;;;18.30;92.60;;;;;;5022144;28;20003;-96
2023/05/22 10:02:44;;;;;;;;;;;18.30;92.60;;;;;;5030023;28;19921;-96
2023/05/22 10:05:30;;;;;;;;;;;18.30;92.60;;;;;;5028856;28;19916;-96
2023/05/22 10:08:15;;;;;;;;;;;18.30;92.70;;;;;;5015637;28;19949;-96
2023/05/22 10:11:05;;;;;;;;;;;18.30;92.70;;;;;;5033350;28;19959;-96
2023/05/22 10:13:49;;;;;;;;;;;18.30;92.90;;;;;;5035234;28;20247;-96
2023/05/22 10:16:40;;;;;;;;;;;18.30;93.00;;;;;;5025499;28;20004;-96
2023/05/22 10:19:27;;;;;;;;;;;18.30;93.10;;;;;;5018765;28;19917;-96
2023/05/22 10:21:56;;;;;;;;;;;18.30;93.10;;;;;;5027528;28;19910;-96
2023/05/22 10:24:25;;;;;;;;;;;18.30;92.70;;;;;;5005505;28;19913;-96
2023/05/22 10:27:10;;;;;;;;;;;18.30;92.70;;;;;;5006541;28;20385;-96
2023/05/22 10:29:57;;;;;;;;;;;18.30;92.70;;;;;;5028146;28;19953;-96
2023/05/22 10:32:26;;;;;;;;;;;18.30;92.70;;;;;;5024837;28;19909;-96
2023/05/22 10:35:10;;;;;;;;;;;18.20;92.70;;;;;;5031621;28;20070;-96
2023/05/22 10:37:59;;;;;;;;;;;18.20;92.70;;;;;;5022924;28;20037;-96
2023/05/22 10:41:10;;;;;;;;;;;18.20;92.80;;;;;;5044078;28;19910;-96
2023/05/22 10:44:12;;;;;;;;;;;18.20;92.90;;;;;;5024992;28;19972;-96
2023/05/22 10:47:32;;;;;;;;;;;18.20;92.90;;;;;;5035663;28;19909;-96
2023/05/22 10:50:27;;;;;;;;;;;18.10;93.10;;;;;;5042270;28;19920;-96
2023/05/22 10:53:41;;;;;;;;;;;18.10;93.40;;;;;;5038726;28;19909;-96
2023/05/22 10:56:29;;;;;;;;;;;18.10;93.40;;;;;;5041336;28;19916;-96
2023/05/22 10:59:25;;;;;;;;;;;18.00;93.60;;;;;;5030843;28;20004;-96
2023/05/22 11:02:52;;;;;;;;;;;18.00;93.60;;;;;;5036202;28;19917;-96
2023/05/22 11:08:49;;;;;;;;;;;18.00;93.40;;;;;;5233060;22;19936;-96
2023/05/22 11:11:52;;;;;;;;;;;18.00;93.70;;;;;;4975306;28;19914;-96
2023/05/22 11:14:57;;;;;;;;;;;18.00;93.70;;;;;;5111869;22;19923;-96
2023/05/22 11:17:28;;;;;;;;;;;17.90;93.70;;;;;;5043613;28;20401;-96
2023/05/22 11:20:18;;;;;;;;;;;17.90;93.90;;;;;;5037736;28;19914;-96
2023/05/22 11:23:15;;;;;;;;;;;17.90;93.90;;;;;;5034069;28;19917;-96
2023/05/22 11:26:02;;;;;;;;;;;17.90;93.90;;;;;;5034341;28;19909;-96
2023/05/22 11:28:52;;;;;;;;;;;17.90;94.10;;;;;;5038518;28;19905;-96
2023/05/22 11:31:59;;;;;;;;;;;17.90;94.20;;;;;;5027204;28;19913;-96
2023/05/22 11:35:04;;;;;;;;;;;17.90;94.20;;;;;;5039799;28;19932;-96
2023/05/22 11:38:15;;;;;;;;;;;17.80;94.30;;;;;;5041789;28;19901;-96
2023/05/22 11:41:18;;;;;;;;;;;17.80;94.30;;;;;;5016095;28;19914;-96
2023/05/22 11:47:33;;;;;;;;;;;17.80;94.50;;;;;;5382721;22;19924;-96
2023/05/22 11:50:40;;;;;;;;;;;17.70;94.30;;;;;;5451937;22;20185;-96
2023/05/22 11:53:59;;;;;;;;;;;17.70;94.30;;;;;;5050766;28;19913;-96
2023/05/22 11:57:05;;;;;;;;;;;17.70;94.30;;;;;;5045407;28;19909;-96
2023/05/22 12:00:10;;;;;;;;;;;17.60;94.30;;;;;;5045714;28;19918;-96
2023/05/22 12:02:56;;;;;;;;;;;17.60;94.30;;;;;;5015085;28;19983;-96
2023/05/22 12:05:45;;;;;;;;;;;17.60;94.30;;;;;;5008335;28;19923;-96
2023/05/22 12:08:32;;;;;;;;;;;17.60;94.30;;;;;;5002277;28;20413;-96
2023/05/22 12:11:18;;;;;;;;;;;17.60;94.30;;;;;;5000364;28;19910;-96
2023/05/22 12:14:04;;;;;;;;;;;17.50;94.30;;;;;;4999220;28;20373;-96
2023/05/22 12:17:03;;;;;;;;;;;17.50;94.30;;;;;;5025778;28;19920;-96
2023/05/22 12:19:48;;;;;;;;;;;17.60;94.30;;;;;;5001809;28;19924;-96
2023/05/22 12:22:36;;;;;;;;;;;17.40;94.30;;;;;;5014079;28;20395;-96
2023/05/22 12:25:23;;;;;;;;;;;17.50;94.30;;;;;;4999148;28;19910;-96
2023/05/22 12:27:50;;;;;;;;;;;17.50;94.30;;;;;;5012741;28;19953;-96
2023/05/22 12:30:44;;;;;;;;;;;17.40;94.30;;;;;;4999755;28;20008;-96
2023/05/22 12:33:32;;;;;;;;;;;17.40;94.30;;;;;;4991189;28;19932;-96
2023/05/22 12:36:18;;;;;;;;;;;17.40;94.30;;;;;;5013597;28;19910;-96
2023/05/22 12:39:09;;;;;;;;;;;17.40;94.40;;;;;;4999052;28;20494;-96
2023/05/22 12:41:36;;;;;;;;;;;17.40;94.30;;;;;;5036111;28;19909;-96
2023/05/22 12:44:23;;;;;;;;;;;17.30;94.40;;;;;;5052774;28;19919;-96
2023/05/22 12:47:08;;;;;;;;;;;17.40;94.50;;;;;;5037889;28;19909;-96
2023/05/22 12:49:38;;;;;;;;;;;17.40;94.40;;;;;;5041114;28;19913;-96
2023/05/22 12:52:30;;;;;;;;;;;17.40;94.60;;;;;;5054952;28;19957;-96
2023/05/22 12:55:15;;;;;;;;;;;17.30;94.50;;;;;;5035473;28;20262;-96
2023/05/22 12:58:02;;;;;;;;;;;17.30;94.60;;;;;;5049908;28;19913;-96
2023/05/22 13:00:51;;;;;;;;;;;17.30;94.60;;;;;;5054051;28;19916;-96
2023/05/22 13:03:37;;;;;;;;;;;17.30;94.60;;;;;;5050968;28;19916;-96
2023/05/22 13:06:23;;;;;;;;;;;17.30;94.70;;;;;;5028950;28;19909;-96
2023/05/22 13:09:09;;;;;;;;;;;17.30;94.80;;;;;;5027025;28;19916;-96
2023/05/22 13:11:55;;;;;;;;;;;17.30;94.80;;;;;;5036232;28;20284;-96
2023/05/22 13:14:43;;;;;;;;;;;17.20;94.70;;;;;;5043282;28;19920;-96
2023/05/22 13:17:30;;;;;;;;;;;17.30;94.80;;;;;;5044712;28;19915;-96
2023/05/22 13:20:17;;;;;;;;;;;17.30;94.80;;;;;;5049700;28;19916;-96
2023/05/22 13:23:02;;;;;;;;;;;17.20;94.80;;;;;;5035691;28;19916;-96
2023/05/22 13:25:48;;;;;;;;;;;17.20;94.70;;;;;;5034970;28;19936;-96
2023/05/22 13:28:34;;;;;;;;;;;17.20;94.70;;;;;;5052819;28;19915;-96
2023/05/22 13:31:23;;;;;;;;;;;17.20;94.70;;;;;;5053145;28;19913;-96
2023/05/22 13:34:08;;;;;;;;;;;17.30;94.70;;;;;;5035005;28;20387;-96
2023/05/22 13:36:55;;;;;;;;;;;17.20;94.80;;;;;;5052146;28;19916;-96
2023/05/22 13:39:40;;;;;;;;;;;17.20;94.90;;;;;;5035079;28;19912;-96
2023/05/22 13:42:26;;;;;;;;;;;17.20;94.90;;;;;;5035789;28;19952;-95
2023/05/22 13:45:12;;;;;;;;;;;17.20;95.00;;;;;;5034720;28;19909;-96
2023/05/22 13:47:57;;;;;;;;;;;17.20;94.90;;;;;;5030704;28;19913;-96
2023/05/22 13:50:44;;;;;;;;;;;17.20;94.90;;;;;;5053979;28;19909;-96
2023/05/22 13:53:11;;;;;;;;;;;17.20;94.90;;;;;;5049690;28;19966;-96
2023/05/22 13:55:57;;;;;;;;;;;17.20;94.90;;;;;;5038346;28;20277;-96
2023/05/22 13:58:24;;;;;;;;;;;17.20;95.00;;;;;;5056883;28;19913;-96
2023/05/22 14:01:12;;;;;;;;;;;17.20;95.10;;;;;;5058933;28;19909;-96
2023/05/22 14:04:17;;;;;;;;;;;17.20;95.20;;;;;;5054643;28;19963;-96
2023/05/22 14:07:04;;;;;;;;;;;17.20;95.20;;;;;;5055078;28;19909;-96
2023/05/22 14:09:51;;;;;;;;;;;17.20;95.30;;;;;;5054741;28;19913;-96
2023/05/22 14:12:38;;;;;;;;;;;17.20;95.20;;;;;;5059473;28;19916;-96
2023/05/22 14:15:27;;;;;;;;;;;17.20;95.20;;;;;;5033147;28;19916;-96
2023/05/22 14:18:16;;;;;;;;;;;17.20;95.10;;;;;;5050772;28;19920;-96
2023/05/22 14:21:02;;;;;;;;;;;17.20;95.10;;;;;;5049396;28;19999;-96
2023/05/22 14:23:48;;;;;;;;;;;17.20;95.10;;;;;;5031941;28;19936;-96
2023/05/22 14:26:34;;;;;;;;;;;17.20;95.00;;;;;;5039179;28;19959;-96
2023/05/22 14:29:19;;;;;;;;;;;17.20;95.10;;;;;;5040141;28;19948;-96
2023/05/22 14:32:08;;;;;;;;;;;17.20;95.10;;;;;;5050783;28;19923;-96
2023/05/22 14:34:54;;;;;;;;;;;17.20;95.10;;;;;;5038741;28;19908;-96
2023/05/22 14:37:22;;;;;;;;;;;17.20;95.10;;;;;;5039252;28;19962;-96
2023/05/22 14:40:10;;;;;;;;;;;17.20;95.20;;;;;;5025540;28;19913;-96
2023/05/22 14:46:14;;;;;;;;;;;17.20;95.10;;;;;;5062118;28;19909;-96
2023/05/22 14:49:20;;;;;;;;;;;17.20;95.00;;;;;;5700141;22;19924;-96
2023/05/22 14:52:12;;;;;;;;;;;17.20;95.20;;;;;;5064593;28;19924;-96
2023/05/22 15:02:45;;;;;;;;;;;17.20;94.80;;;;;;5067448;28;19925;-96
2023/05/22 15:05:53;;;;;;;;;;;17.20;94.80;;;;;;5062575;28;19897;-96
2023/05/22 15:09:09;;;;;;;;;;;;;;;;;;;;;
2023/05/22 16:11:38;;;;;;;;;;;17.10;94.40;;;;;;5543077;22;19925;-96
2023/05/22 16:14:33;;;;;;;;;;;17.20;94.40;;;;;;5043803;28;19909;-96
2023/05/22 16:17:46;;;;;;;;;;;17.10;94.30;;;;;;5050527;28;19909;-96
2023/05/22 16:27:31;;;;;;;;;;;17.10;94.30;;;;;;4947055;29;19998;-96
2023/05/22 16:30:19;;;;;;;;;;;17.10;94.30;;;;;;4936989;29;19938;-96
2023/05/22 16:36:12;;;;;;;;;;;17.00;94.30;;;;;;4947524;29;20298;-96
2023/05/22 16:39:00;;;;;;;;;;;17.10;94.30;;;;;;4933414;29;19945;-96
2023/05/22 16:42:07;;;;;;;;;;;17.10;94.30;;;;;;4940097;29;19921;-96
2023/05/22 16:44:55;;;;;;;;;;;17.10;94.30;;;;;;4935400;29;19918;-96
2023/05/22 16:47:49;;;;;;;;;;;17.10;94.30;;;;;;4942967;29;20305;-96
2023/05/22 16:50:41;;;;;;;;;;;17.10;94.30;;;;;;4942538;29;19955;-96
2023/05/22 16:53:36;;;;;;;;;;;17.10;94.30;;;;;;4948166;29;19926;-96
2023/05/22 16:56:32;;;;;;;;;;;17.10;94.30;;;;;;4965186;28;19914;-96
2023/05/22 17:18:27;;;;;;;;;;;17.00;94.10;;;;;;4892061;29;19931;-96
2023/05/22 17:24:40;;;;;;;;;;;;;;;;;;;;;
2023/05/22 17:27:45;;;;;;;;;;;16.90;94.10;;;;;;4908016;29;19906;-96
2023/05/22 17:30:55;;;;;;;;;;;16.90;94.10;;;;;;4894996;29;19963;-96
2023/05/22 17:33:50;;;;;;;;;;;16.90;94.10;;;;;;4911511;29;19912;-96
2023/05/22 17:36:43;;;;;;;;;;;16.90;94.10;;;;;;4913551;29;19922;-96
2023/05/22 17:39:59;;;;;;;;;;;16.90;94.10;;;;;;4936521;29;19919;-96
2023/05/22 17:42:57;;;;;;;;;;;16.90;94.20;;;;;;4950466;29;19919;-96
2023/05/22 17:45:48;;;;;;;;;;;16.80;94.20;;;;;;4933670;29;19911;-96
2023/05/22 17:48:41;;;;;;;;;;;16.90;94.20;;;;;;4966158;28;19982;-96
2023/05/22 17:54:41;;;;;;;;;;;16.80;94.20;;;;;;5006753;28;19937;-96
2023/05/22 17:57:39;;;;;;;;;;;16.80;94.30;;;;;;4985867;28;19909;-96
2023/05/22 18:04:00;;;;;;;;;;;16.80;94.30;;;;;;4900467;29;19979;-96
2023/05/22 18:07:19;;;;;;;;;;;;;;;;;;;;;
2023/05/22 18:13:52;;;;;;;;;;;16.80;94.30;;;;;;4888292;29;19896;-96
2023/05/22 18:17:04;;;;;;;;;;;;;;;;;;;;;
2023/05/22 18:20:12;;;;;;;;;;;16.80;94.40;;;;;;4825182;29;19917;-96
2023/05/22 18:26:09;;;;;;;;;;;16.80;94.40;;;;;;4787073;30;20056;-96
2023/05/22 18:29:24;;;;;;;;;;;;;;;;;;;;;
2023/05/22 18:32:00;;;;;;;;;;;16.70;94.40;;;;;;4822900;29;19928;-96
2023/05/22 18:35:02;;;;;;;;;;;;;;;;;;;;;
2023/05/22 18:38:16;;;;;;;;;;;16.70;94.40;;;;;;4833658;29;19925;-96
2023/05/22 18:41:43;;;;;;;;;;;16.70;94.40;;;;;;4842560;29;19917;-96
2023/05/22 18:44:41;;;;;;;;;;;16.70;94.40;;;;;;4854987;29;19976;-96
2023/05/22 18:57:19;;;;;;;;;;;;;;;;;;;;;
2023/05/22 19:24:06;;;;;;;;;;;16.60;94.60;;;;;;5036558;28;19996;-96
2023/05/22 19:27:01;;;;;;;;;;;16.60;94.60;;;;;;5037551;28;19909;-96
2023/05/22 19:30:33;;;;;;;;;;;;;;;;;;;;;
2023/05/22 19:33:01;;;;;;;;;;;16.60;94.60;;;;;;4909511;29;20284;-96
2023/05/22 19:35:51;;;;;;;;;;;16.60;94.60;;;;;;4915644;29;19911;-97
2023/05/22 19:38:17;;;;;;;;;;;16.60;94.60;;;;;;4921050;29;19915;-96
2023/05/22 19:41:02;;;;;;;;;;;16.60;94.60;;;;;;4910179;29;19955;-96
2023/05/22 19:43:52;;;;;;;;;;;16.60;94.60;;;;;;4912795;29;20106;-96
2023/05/22 19:46:38;;;;;;;;;;;16.60;94.60;;;;;;4914589;29;20376;-96
2023/05/22 19:49:08;;;;;;;;;;;16.60;94.60;;;;;;4909769;29;19915;-96
2023/05/22 19:51:54;;;;;;;;;;;16.50;94.60;;;;;;4897220;29;20459;-96
2023/05/22 19:54:40;;;;;;;;;;;16.50;94.60;;;;;;4916367;29;19911;-96
2023/05/22 19:57:36;;;;;;;;;;;16.50;94.60;;;;;;4892382;29;20037;-96
2023/05/22 20:00:40;;;;;;;;;;;16.50;94.90;;;;;;4892383;29;20300;-96
2023/05/22 20:03:28;;;;;;;;;;;16.50;94.60;;;;;;4891363;29;19940;-96
2023/05/22 20:06:15;;;;;;;;;;;16.50;94.60;;;;;;4893117;29;19912;-96
2023/05/22 20:09:04;;;;;;;;;;;16.50;94.60;;;;;;4898478;29;19920;-96
2023/05/22 20:11:55;;;;;;;;;;;16.60;94.70;;;;;;4904821;29;19918;-96
2023/05/22 20:14:58;;;;;;;;;;;16.50;94.60;;;;;;4969898;28;19915;-96
2023/05/22 20:17:46;;;;;;;;;;;16.50;94.60;;;;;;4958687;28;19914;-96
2023/05/22 20:20:34;;;;;;;;;;;16.50;94.70;;;;;;4969149;28;19929;-96
2023/05/22 20:23:43;;;;;;;;;;;16.50;94.70;;;;;;4969856;28;20203;-96
2023/05/22 20:26:32;;;;;;;;;;;16.50;94.70;;;;;;4956076;28;19911;-96
2023/05/22 20:29:18;;;;;;;;;;;16.50;94.70;;;;;;4994489;28;19948;-96
2023/05/22 20:32:16;;;;;;;;;;;16.40;94.60;;;;;;5031804;28;20408;-96
2023/05/22 20:35:02;;;;;;;;;;;16.40;94.60;;;;;;5029824;28;19910;-96
2023/05/22 20:37:52;;;;;;;;;;;16.40;94.70;;;;;;5022325;28;19918;-96
2023/05/22 20:40:47;;;;;;;;;;;16.40;94.70;;;;;;5030192;28;19909;-96
2023/05/22 20:43:53;;;;;;;;;;;16.40;94.70;;;;;;5039124;28;19971;-96
2023/05/22 20:46:40;;;;;;;;;;;16.40;94.70;;;;;;5033991;28;19909;-96
2023/05/22 20:49:28;;;;;;;;;;;16.40;94.70;;;;;;5034971;28;20354;-96
2023/05/22 20:52:16;;;;;;;;;;;16.40;94.70;;;;;;5024429;28;19913;-96
2023/05/22 20:55:03;;;;;;;;;;;16.40;94.70;;;;;;5030420;28;19917;-96
2023/05/22 20:57:52;;;;;;;;;;;16.40;94.80;;;;;;5016872;28;19984;-96
2023/05/22 21:00:40;;;;;;;;;;;16.40;94.80;;;;;;5016038;28;19910;-96
2023/05/22 21:03:31;;;;;;;;;;;16.40;94.80;;;;;;5035432;28;19937;-96
2023/05/22 21:06:19;;;;;;;;;;;16.40;94.80;;;;;;5013701;28;19910;-96
2023/05/22 21:12:12;;;;;;;;;;;16.40;94.80;;;;;;5022820;28;19914;-96
2023/05/22 21:14:39;;;;;;;;;;;16.40;94.80;;;;;;5037301;28;19959;-96
2023/05/22 21:17:26;;;;;;;;;;;16.30;94.80;;;;;;5031370;28;20354;-96
2023/05/22 21:20:15;;;;;;;;;;;16.30;94.80;;;;;;5020160;28;20095;-96
2023/05/22 21:22:47;;;;;;;;;;;16.30;94.90;;;;;;5024631;28;19909;-96
2023/05/22 21:25:36;;;;;;;;;;;16.30;94.90;;;;;;5047764;28;20357;-96
2023/05/22 21:28:22;;;;;;;;;;;16.30;94.90;;;;;;5027610;28;19909;-96
2023/05/22 21:31:10;;;;;;;;;;;16.30;94.90;;;;;;5020695;28;19910;-96
2023/05/22 21:34:15;;;;;;;;;;;16.30;94.90;;;;;;5026849;28;19919;-96
2023/05/22 21:37:01;;;;;;;;;;;16.30;94.90;;;;;;5016146;28;20001;-96
2023/05/22 21:39:47;;;;;;;;;;;16.30;94.90;;;;;;5021247;28;19987;-96
2023/05/22 21:42:33;;;;;;;;;;;16.30;94.90;;;;;;5017646;28;19909;-96
2023/05/22 21:45:21;;;;;;;;;;;16.30;94.90;;;;;;5017241;28;19910;-96
2023/05/22 21:48:11;;;;;;;;;;;16.30;94.90;;;;;;5026886;28;19910;-96
2023/05/22 21:51:06;;;;;;;;;;;16.30;94.90;;;;;;5015703;28;19913;-96
2023/05/22 21:53:55;;;;;;;;;;;16.30;95.00;;;;;;5031312;28;20009;-96